Time;durP1;ratioP1;P1;durP2;ratioP2;P2;SDS_P1;SDS_P2;PMS_P1;PMS_P2;Temp;Humidity;BMP_temperature;BMP_pressure;BME280_temperature;BME280_humidity;BME280_pressure;Samples;Min_cycle;Max_cycle;Signal;HPM_P1;HPM_P2
2021/11/08 00:00:30;;;;;;;37.85;15.95;;;;;;;5.05;100.00;99182.09;5064874;28;20096;-65
2021/11/08 00:03:02;;;;;;;39.60;16.45;;;;;;;5.02;100.00;99184.66;5064663;28;20024;-65
2021/11/08 00:05:28;;;;;;;38.10;15.00;;;;;;;5.03;100.00;99191.66;5061131;28;20367;-65
2021/11/08 00:07:59;;;;;;;76.07;15.85;;;;;;;5.06;100.00;99176.88;5064961;28;20028;-65
2021/11/08 00:10:33;;;;;;;70.93;16.15;;;;;;;5.19;100.00;99177.91;5064649;28;20016;-65
2021/11/08 00:13:03;;;;;;;30.88;12.50;;;;;;;5.15;100.00;99181.31;5064676;28;20093;-65
2021/11/08 00:16:15;;;;;;;26.75;11.90;;;;;;;5.03;100.00;99186.44;5064005;28;20044;-65
2021/11/08 00:20:58;;;;;;;61.75;12.65;;;;;;;4.94;100.00;99187.22;5044777;28;20032;-65
2021/11/08 00:23:24;;;;;;;27.85;13.98;;;;;;;5.03;100.00;99181.22;5044388;28;20240;-65
2021/11/08 00:25:49;;;;;;;24.45;12.75;;;;;;;5.11;100.00;99189.97;5044351;28;20025;-65
2021/11/08 00:28:17;;;;;;;55.55;17.40;;;;;;;5.15;100.00;99191.75;5044391;28;20212;-65
2021/11/08 00:30:44;;;;;;;36.58;15.35;;;;;;;5.20;100.00;99190.97;5057944;28;20024;-65
2021/11/08 00:33:15;;;;;;;40.28;15.10;;;;;;;5.25;100.00;99204.06;5064295;28;20080;-65
2021/11/08 00:35:49;;;;;;;74.95;14.38;;;;;;;5.23;100.00;99197.94;5064492;28;20017;-65
2021/11/08 00:38:16;;;;;;;41.42;13.65;;;;;;;5.22;100.00;99201.44;5064090;28;20024;-65
2021/11/08 00:40:42;;;;;;;34.15;14.10;;;;;;;5.24;100.00;99212.75;5058766;28;20088;-65
2021/11/08 00:43:09;;;;;;;32.95;13.68;;;;;;;5.25;100.00;99209.28;5044113;28;20021;-65
2021/11/08 00:45:35;;;;;;;95.15;15.10;;;;;;;5.04;100.00;99219.47;5044077;28;20052;-65
2021/11/08 00:48:01;;;;;;;113.93;15.18;;;;;;;4.89;100.00;99220.16;5044149;28;20025;-65
2021/11/08 00:50:27;;;;;;;32.67;12.95;;;;;;;4.96;100.00;99226.31;5043990;28;20021;-65
2021/11/08 00:52:53;;;;;;;27.13;12.90;;;;;;;5.05;100.00;99231.66;5044066;28;20317;-65
2021/11/08 00:55:18;;;;;;;39.17;14.68;;;;;;;5.11;100.00;99227.41;5056775;28;20186;-65
2021/11/08 00:57:46;;;;;;;31.33;14.02;;;;;;;5.09;100.00;99238.69;5063545;28;20130;-65
2021/11/08 01:00:15;;;;;;;30.25;14.10;;;;;;;5.06;100.00;99238.66;5064133;28;20032;-65
2021/11/08 01:02:41;;;;;;;25.40;12.23;;;;;;;4.92;100.00;99245.41;5063767;28;20245;-65
2021/11/08 01:05:14;;;;;;;29.80;13.85;;;;;;;4.93;100.00;99247.19;5063700;28;20374;-65
2021/11/08 01:07:39;;;;;;;33.42;13.05;;;;;;;4.96;100.00;99241.97;5063848;28;20059;-65
2021/11/08 01:10:10;;;;;;;33.78;14.75;;;;;;;4.91;100.00;99243.66;5063891;28;20025;-65
2021/11/08 01:12:37;;;;;;;26.23;13.35;;;;;;;5.05;100.00;99257.75;5063762;28;20023;-65
2021/11/08 01:15:04;;;;;;;29.73;14.15;;;;;;;5.09;100.00;99267.38;5062380;28;20013;-65
2021/11/08 01:17:30;;;;;;;33.03;14.60;;;;;;;5.15;100.00;99275.25;5063710;28;20021;-65
2021/11/08 01:19:55;;;;;;;48.30;14.55;;;;;;;5.01;100.00;99276.81;5062531;28;20209;-65
2021/11/08 01:22:22;;;;;;;38.05;14.98;;;;;;;5.03;100.00;99280.34;5063523;28;20045;-65
2021/11/08 01:24:53;;;;;;;27.20;14.32;;;;;;;5.13;100.00;99287.44;5063571;28;20321;-65
2021/11/08 01:27:36;;;;;;;28.55;14.40;;;;;;;5.22;100.00;99290.16;5063633;28;20025;-65
2021/11/08 01:30:08;;;;;;;28.17;13.93;;;;;;;5.28;100.00;99285.88;5063645;28;20021;-65
2021/11/08 01:32:34;;;;;;;31.08;15.02;;;;;;;5.34;100.00;99282.44;5063099;28;20024;-65
2021/11/08 01:34:59;;;;;;;30.42;14.63;;;;;;;5.36;100.00;99280.72;5063563;28;20370;-65
2021/11/08 01:37:25;;;;;;;31.15;14.82;;;;;;;5.37;100.00;99283.38;5063505;28;20251;-65
2021/11/08 01:39:51;;;;;;;37.28;16.13;;;;;;;5.39;100.00;99293.81;5063512;28;20084;-65
2021/11/08 01:42:17;;;;;;;42.40;14.77;;;;;;;5.36;100.00;99291.19;5063530;28;20339;-65
2021/11/08 01:44:43;;;;;;;32.40;13.13;;;;;;;5.46;100.00;99282.59;5063421;28;20029;-65
2021/11/08 01:47:09;;;;;;;27.15;12.80;;;;;;;5.44;100.00;99289.53;5063462;28;20028;-65
2021/11/08 01:49:40;;;;;;;26.00;13.60;;;;;;;5.47;100.00;99302.63;5063481;28;20028;-65
2021/11/08 01:52:07;;;;;;;24.33;12.38;;;;;;;5.52;100.00;99298.31;5063746;28;20025;-65
2021/11/08 01:54:33;;;;;;;31.15;12.35;;;;;;;5.55;100.00;99303.56;5063537;28;20021;-65
2021/11/08 01:56:59;;;;;;;69.28;13.88;;;;;;;5.52;100.00;99298.31;5063441;28;20375;-65
2021/11/08 01:59:26;;;;;;;45.22;12.93;;;;;;;5.52;100.00;99293.09;5063366;28;20031;-65
2021/11/08 02:01:54;;;;;;;70.05;12.00;;;;;;;5.48;100.00;99286.09;5050963;28;20288;-65
2021/11/08 02:04:22;;;;;;;30.08;11.57;;;;;;;5.41;100.00;99290.38;5038752;23;20356;-86
2021/11/08 02:06:49;;;;;;;32.13;11.73;;;;;;;5.46;100.00;99303.47;5022982;28;20219;-86
2021/11/08 02:09:14;;;;;;;26.30;11.80;;;;;;;5.48;100.00;99314.81;5042661;28;20048;-86
2021/11/08 02:11:41;;;;;;;47.83;11.30;;;;;;;5.39;100.00;99318.19;5026393;28;20026;-86
2021/11/08 02:14:07;;;;;;;26.45;9.40;;;;;;;5.40;100.00;99319.06;5042523;28;20048;-86
2021/11/08 02:16:34;;;;;;;37.40;10.23;;;;;;;5.40;100.00;99324.28;5027431;28;20026;-86
2021/11/08 02:19:02;;;;;;;34.65;10.73;;;;;;;5.35;100.00;99325.97;5025938;28;20025;-86
2021/11/08 02:21:28;;;;;;;41.70;10.05;;;;;;;5.31;100.00;99324.19;5027028;28;20026;-86
2021/11/08 02:23:55;;;;;;;36.67;8.85;;;;;;;5.27;100.00;99322.38;5042331;28;20252;-86
2021/11/08 02:26:20;;;;;;;41.53;10.38;;;;;;;5.14;100.00;99321.38;5025691;28;20068;-86
2021/11/08 02:28:48;;;;;;;20.17;10.00;;;;;;;5.19;100.00;99321.44;5024821;28;20104;-86
2021/11/08 02:31:17;;;;;;;28.63;10.25;;;;;;;5.09;100.00;99322.16;5025711;28;20048;-86
2021/11/08 02:33:53;;;;;;;22.33;9.82;;;;;;;5.15;100.00;99327.44;5025693;28;20042;-86
2021/11/08 02:36:21;;;;;;;27.17;10.50;;;;;;;5.19;100.00;99329.25;5025670;28;20049;-86
2021/11/08 02:38:51;;;;;;;26.13;9.63;;;;;;;5.17;100.00;99325.75;5025615;28;20028;-86
2021/11/08 02:41:17;;;;;;;34.97;10.43;;;;;;;5.02;100.00;99330.75;5025808;28;20022;-86
2021/11/08 02:43:44;;;;;;;107.38;12.23;;;;;;;4.95;100.00;99335.03;5026913;28;20025;-86
2021/11/08 02:46:13;;;;;;;44.42;10.85;;;;;;;5.07;100.00;99329.97;5025356;28;20021;-86
2021/11/08 02:48:42;;;;;;;33.10;11.43;;;;;;;5.05;100.00;99343.84;5025399;28;20030;-86
2021/11/08 02:51:13;;;;;;;34.47;11.27;;;;;;;5.12;100.00;99343.09;5025333;28;20022;-86
2021/11/08 02:53:40;;;;;;;23.90;10.73;;;;;;;5.14;100.00;99334.41;5026497;28;20317;-86
2021/11/08 02:56:10;;;;;;;38.97;11.20;;;;;;;5.13;100.00;99334.38;5025288;28;20041;-86
2021/11/08 02:58:37;;;;;;;38.25;10.68;;;;;;;5.15;100.00;99337.88;5025228;28;20037;-86
2021/11/08 03:01:04;;;;;;;34.05;10.65;;;;;;;5.12;100.00;99332.66;5025162;28;20095;-86
2021/11/08 03:03:36;;;;;;;21.58;10.13;;;;;;;5.11;100.00;99330.88;5025058;28;20037;-86
2021/11/08 03:06:25;;;;;;;45.45;9.82;;;;;;;5.01;100.00;99334.22;5025096;28;20045;-86
2021/11/08 03:08:51;;;;;;;23.23;10.57;;;;;;;5.05;100.00;99346.44;4987174;28;20102;-86
2021/11/08 03:11:17;;;;;;;24.92;11.55;;;;;;;5.07;100.00;99355.19;4986245;28;20209;-86
2021/11/08 03:14:03;;;;;;;27.70;10.13;;;;;;;4.99;100.00;99347.25;4986144;28;20026;-86
2021/11/08 03:16:45;;;;;;;23.95;10.73;;;;;;;5.08;100.00;99356.91;5002005;28;20022;-86
2021/11/08 03:19:20;;;;;;;43.85;11.02;;;;;;;5.07;100.00;99350.84;5001037;28;20314;-86
2021/11/08 03:21:50;;;;;;;21.00;9.90;;;;;;;5.05;100.00;99346.44;4999747;28;20029;-86
2021/11/08 03:24:22;;;;;;;23.05;10.13;;;;;;;5.04;100.00;99349.91;5024615;28;20355;-86
2021/11/08 03:26:50;;;;;;;26.65;10.07;;;;;;;4.96;100.00;99346.31;5024739;28;20026;-86
2021/11/08 03:29:17;;;;;;;26.70;10.77;;;;;;;4.96;100.00;99349.81;5024604;28;20093;-86
2021/11/08 03:31:46;;;;;;;28.70;9.70;;;;;;;4.99;100.00;99352.47;5024570;28;20025;-86
2021/11/08 03:34:13;;;;;;;24.45;11.40;;;;;;;5.02;100.00;99347.28;5024521;28;20025;-86
2021/11/08 03:36:39;;;;;;;25.67;9.88;;;;;;;4.95;100.00;99345.44;5024491;28;20087;-86
2021/11/08 03:39:06;;;;;;;16.40;9.20;;;;;;;4.95;100.00;99350.66;5024735;28;20313;-86
2021/11/08 03:41:32;;;;;;;20.98;10.30;;;;;;;4.93;100.00;99351.50;5024395;28;20036;-86
2021/11/08 03:43:59;;;;;;;23.23;9.13;;;;;;;4.75;100.00;99351.22;5009630;28;20195;-86
2021/11/08 03:46:25;;;;;;;34.17;9.75;;;;;;;4.79;100.00;99359.13;5004686;28;20030;-86
2021/11/08 03:48:50;;;;;;;37.97;8.73;;;;;;;4.64;100.00;99374.53;5004640;28;20060;-86
2021/11/08 03:51:15;;;;;;;27.42;8.93;;;;;;;4.62;100.00;99364.94;5004919;28;20030;-86
2021/11/08 03:53:41;;;;;;;24.67;9.57;;;;;;;4.71;100.00;99371.16;5004833;28;20053;-86
2021/11/08 03:56:07;;;;;;;35.08;9.63;;;;;;;4.62;100.00;99372.75;5004506;28;20027;-86
2021/11/08 03:58:33;;;;;;;58.80;10.25;;;;;;;4.49;100.00;99385.59;5004461;28;20022;-86
2021/11/08 04:01:00;;;;;;;15.27;8.32;;;;;;;4.53;100.00;99386.53;5004413;28;20029;-86
2021/11/08 04:03:26;;;;;;;20.50;7.40;;;;;;;4.61;100.00;99395.34;5004183;28;20053;-86
2021/11/08 04:05:51;;;;;;;17.55;9.73;;;;;;;4.63;100.00;99397.97;5004243;28;20097;-86
2021/11/08 04:08:21;;;;;;;21.60;8.77;;;;;;;4.57;100.00;99400.47;5005496;28;20049;-86
2021/11/08 04:10:51;;;;;;;20.98;9.63;;;;;;;4.56;100.00;99398.72;5023915;28;20264;-86
2021/11/08 04:13:19;;;;;;;22.33;9.15;;;;;;;4.64;100.00;99410.16;5023886;28;20018;-86
2021/11/08 04:15:47;;;;;;;20.40;8.80;;;;;;;4.68;100.00;99418.03;5023834;28;20018;-86
2021/11/08 04:18:18;;;;;;;20.55;8.32;;;;;;;4.67;100.00;99415.41;5023758;28;20021;-86
2021/11/08 04:20:45;;;;;;;23.13;8.48;;;;;;;4.68;100.00;99409.38;5023821;28;20045;-86
2021/11/08 04:23:14;;;;;;;37.78;9.20;;;;;;;4.57;100.00;99418.72;5023663;28;20022;-86
2021/11/08 04:25:41;;;;;;;34.95;10.45;;;;;;;4.49;100.00;99421.19;5023902;28;20022;-86
2021/11/08 04:28:06;;;;;;;20.92;9.75;;;;;;;4.58;100.00;99428.31;5024696;28;20028;-86
2021/11/08 04:30:33;;;;;;;20.90;8.32;;;;;;;4.61;100.00;99421.41;5023340;28;20022;-86
2021/11/08 04:51:08;;;;;;;20.83;7.22;;;;;;;4.54;100.00;99432.59;5004838;28;20030;-86
2021/11/08 04:56:34;;;;;;;55.75;8.55;;;;;;;4.38;100.00;99428.84;5004976;28;20213;-87
2021/11/08 05:24:08;;;;;;;55.92;7.70;;;;;;;4.00;100.00;99466.34;5024145;28;20212;-87
2021/11/08 05:31:47;;;;;;;15.38;6.75;;;;;;;4.31;100.00;99463.44;5024005;28;20018;-87
2021/11/08 05:34:14;;;;;;;20.15;6.70;;;;;;;4.26;100.00;99470.31;5022903;28;20248;-87
2021/11/08 05:36:41;;;;;;;15.80;6.63;;;;;;;4.28;100.00;99472.97;5023904;28;20098;-87
2021/11/08 05:39:08;;;;;;;63.60;8.15;;;;;;;4.02;100.00;99469.84;5022812;28;20028;-87
2021/11/08 05:41:34;;;;;;;26.95;7.68;;;;;;;4.14;100.00;99477.91;5022787;28;20024;-87
2021/11/08 05:44:02;;;;;;;36.00;7.07;;;;;;;4.14;100.00;99470.09;5026418;28;20018;-87
2021/11/08 05:46:29;;;;;;;39.83;7.95;;;;;;;4.22;100.00;99478.06;5027721;28;20022;-87
2021/11/08 05:48:55;;;;;;;23.58;7.22;;;;;;;4.13;100.00;99473.56;5026581;28;20420;-87
2021/11/08 05:51:21;;;;;;;18.73;7.13;;;;;;;4.17;100.00;99467.53;5026545;28;20021;-87
2021/11/08 05:53:48;;;;;;;16.10;5.93;;;;;;;4.19;100.00;99472.78;5026449;28;20024;-87
2021/11/08 05:56:24;;;;;;;18.40;8.00;;;;;;;4.20;100.00;99478.03;5026750;28;20017;-87
2021/11/08 05:59:19;;;;;;;51.35;7.25;;;;;;;4.21;100.00;99477.16;5026438;28;20025;-87
2021/11/08 06:50:41;;;;;;;10.45;5.30;;;;;;;3.89;100.00;99530.34;5026596;28;20017;-87
2021/11/08 06:53:16;;;;;;;19.42;5.90;;;;;;;3.90;100.00;99531.22;5025324;28;20388;-87
2021/11/08 06:55:41;;;;;;;17.50;4.97;;;;;;;3.89;100.00;99540.75;5026468;28;20017;-87
2021/11/08 06:58:12;;;;;;;30.05;6.25;;;;;;;3.78;100.00;99530.97;5026474;28;20116;-87
2021/11/08 07:00:38;;;;;;;16.30;5.50;;;;;;;3.84;100.00;99549.31;5025266;28;20068;-87
2021/11/08 07:03:03;;;;;;;21.50;6.13;;;;;;;3.82;100.00;99551.91;5024959;28;20022;-87
2021/11/08 07:05:29;;;;;;;11.27;4.97;;;;;;;3.93;100.00;99550.38;5025040;28;20058;-87
2021/11/08 07:07:54;;;;;;;15.55;5.28;;;;;;;3.84;100.00;99551.94;5025393;28;20305;-87
2021/11/08 07:10:21;;;;;;;10.20;5.07;;;;;;;3.90;100.00;99542.50;5025072;28;20037;-87
2021/11/08 07:12:48;;;;;;;9.70;4.75;;;;;;;3.86;100.00;99530.28;5024980;28;20025;-87
2021/11/08 07:15:14;;;;;;;33.13;5.00;;;;;;;3.79;100.00;99540.53;5024953;28;20018;-87
2021/11/08 07:17:39;;;;;;;14.00;4.80;;;;;;;3.91;100.00;99546.91;5024865;28;20048;-87
2021/11/08 07:20:05;;;;;;;17.45;4.88;;;;;;;3.96;100.00;99547.84;5024824;28;20017;-87
2021/11/08 07:22:31;;;;;;;17.73;6.55;;;;;;;4.00;100.00;99554.00;5024804;28;20375;-87
2021/11/08 07:24:57;;;;;;;57.17;6.70;;;;;;;3.71;100.00;99542.09;5024669;28;20021;-87
2021/11/08 07:27:23;;;;;;;27.80;6.60;;;;;;;3.48;100.00;99549.38;5024699;28;20068;-87
2021/11/08 07:29:49;;;;;;;13.77;6.20;;;;;;;3.73;100.00;99559.50;5024891;28;20025;-87
2021/11/08 07:32:14;;;;;;;22.65;6.35;;;;;;;3.97;100.00;99569.56;5024941;28;20028;-87
2021/11/08 07:34:40;;;;;;;18.90;6.05;;;;;;;4.08;100.00;99573.28;5024578;28;20041;-87
2021/11/08 07:37:06;;;;;;;15.38;5.97;;;;;;;4.14;100.00;99584.72;5024801;28;20022;-87
2021/11/08 07:39:32;;;;;;;11.23;5.85;;;;;;;4.19;100.00;99577.88;5024464;28;20216;-87
2021/11/08 07:41:58;;;;;;;12.38;5.82;;;;;;;4.26;100.00;99582.38;5025574;28;20080;-87
2021/11/08 07:44:23;;;;;;;23.02;5.97;;;;;;;4.28;100.00;99578.06;5025480;28;20022;-87
2021/11/08 07:46:49;;;;;;;19.10;6.05;;;;;;;4.37;100.00;99585.19;5024323;28;20026;-87
2021/11/08 07:49:15;;;;;;;23.30;5.85;;;;;;;4.29;99.62;99590.25;5024319;28;20025;-87
2021/11/08 07:51:40;;;;;;;19.08;5.90;;;;;;;4.35;99.72;99602.53;5024239;28;20048;-87
2021/11/08 07:54:06;;;;;;;17.17;5.60;;;;;;;4.43;99.85;99604.44;5024256;28;20149;-87
2021/11/08 07:56:32;;;;;;;16.75;5.57;;;;;;;4.40;100.00;99606.97;5024519;28;20013;-87
2021/11/08 07:58:57;;;;;;;14.95;5.22;;;;;;;4.44;98.94;99611.38;5024444;28;20244;-87
2021/11/08 08:01:23;;;;;;;16.33;4.85;;;;;;;4.45;98.25;99607.97;5025233;28;20052;-87
2021/11/08 08:03:48;;;;;;;21.58;4.07;;;;;;;4.35;98.41;99602.53;5023815;28;20116;-87
2021/11/08 08:06:15;;;;;;;16.85;4.72;;;;;;;4.40;98.05;99599.16;5023786;28;20057;-87
2021/11/08 08:08:42;;;;;;;8.10;4.45;;;;;;;4.37;97.23;99593.88;5023988;28;20021;-87
2021/11/08 08:11:08;;;;;;;11.70;3.88;;;;;;;4.37;98.01;99599.09;5023915;28;20018;-87
2021/11/08 08:13:36;;;;;;;19.88;4.53;;;;;;;4.30;98.67;99591.09;5023868;28;20028;-87
2021/11/08 08:16:04;;;;;;;21.05;5.07;;;;;;;4.22;98.52;99598.81;5023792;28;20013;-87
2021/11/08 08:18:32;;;;;;;19.58;4.45;;;;;;;4.25;99.56;99603.19;5023671;28;20024;-87
2021/11/08 08:20:58;;;;;;;26.98;5.88;;;;;;;3.99;98.83;99593.94;5024853;28;20053;-87
2021/11/08 08:23:24;;;;;;;12.18;5.07;;;;;;;4.08;99.85;99584.59;5023741;28;20313;-87
2021/11/08 08:25:50;;;;;;;18.42;5.13;;;;;;;3.99;98.85;99600.00;5023566;28;20093;-87
2021/11/08 08:28:16;;;;;;;15.77;4.30;;;;;;;4.45;98.50;99591.44;5023569;28;20025;-87
2021/11/08 08:30:42;;;;;;;11.15;5.18;;;;;;;4.13;98.01;99576.88;5023594;28;20064;-87
2021/11/08 08:33:08;;;;;;;13.85;4.70;;;;;;;4.16;98.38;99577.81;5025043;28;20029;-87
2021/11/08 08:35:42;;;;;;;13.80;4.88;;;;;;;4.30;99.12;99581.56;5023537;28;20025;-87
2021/11/08 08:38:09;;;;;;;16.45;5.65;;;;;;;4.29;98.76;99590.25;5023791;28;20049;-87
2021/11/08 08:40:35;;;;;;;10.40;5.28;;;;;;;4.73;98.60;99595.44;5023469;28;20324;-87
2021/11/08 08:43:01;;;;;;;13.98;5.75;;;;;;;4.91;97.87;99586.25;5023707;28;20045;-87
2021/11/08 08:45:26;;;;;;;18.00;6.47;;;;;;;4.80;97.24;99592.09;5023620;28;20030;-87
2021/11/08 08:47:52;;;;;;;26.95;6.65;;;;;;;4.60;97.51;99580.41;5023323;28;20101;-87
2021/11/08 08:50:17;;;;;;;13.95;5.30;;;;;;;4.84;98.15;99591.31;5023590;28;20050;-87
2021/11/08 08:52:43;;;;;;;16.13;5.72;;;;;;;4.83;97.73;99595.66;5023193;28;20113;-87
2021/11/08 08:55:08;;;;;;;11.73;4.68;;;;;;;5.00;96.79;99588.13;5023502;28;20068;-87
2021/11/08 08:57:34;;;;;;;10.27;4.88;;;;;;;5.01;96.14;99584.66;5023246;28;20017;-87
2021/11/08 09:00:00;;;;;;;14.80;5.97;;;;;;;5.26;96.56;99579.00;5023171;28;20221;-87
2021/11/08 09:02:25;;;;;;;13.90;5.78;;;;;;;5.47;96.34;99571.53;5023142;28;20026;-87
2021/11/08 09:04:51;;;;;;;14.02;6.35;;;;;;;5.60;96.71;99573.47;5022874;28;20096;-87
2021/11/08 09:07:17;;;;;;;16.85;6.70;;;;;;;5.52;96.80;99580.31;5023043;28;20311;-87
2021/11/08 09:09:43;;;;;;;15.23;6.40;;;;;;;5.33;97.11;99573.03;5023020;28;20057;-87
2021/11/08 09:12:09;;;;;;;17.98;6.07;;;;;;;5.67;96.63;99577.94;5024200;28;20029;-87
2021/11/08 09:14:35;;;;;;;20.30;7.15;;;;;;;5.46;96.66;99567.16;5023060;28;20025;-87
2021/11/08 09:17:04;;;;;;;20.77;7.57;;;;;;;5.67;97.63;99570.09;5023532;28;20029;-87
2021/11/08 09:19:29;;;;;;;29.48;7.03;;;;;;;5.58;97.02;99564.75;5027391;28;20025;-87
2021/11/08 09:21:55;;;;;;;21.83;7.50;;;;;;;5.88;97.18;99565.19;5027326;28;20060;-87
2021/11/08 09:24:22;;;;;;;21.33;8.13;;;;;;;5.48;97.53;99552.41;5026965;28;20113;-87
2021/11/08 09:26:49;;;;;;;32.25;8.48;;;;;;;5.64;98.26;99564.84;5028089;28;20068;-87
2021/11/08 09:29:15;;;;;;;24.67;9.07;;;;;;;5.94;97.57;99560.06;5026913;28;20021;-87
2021/11/08 09:31:40;;;;;;;31.40;9.43;;;;;;;5.62;97.45;99556.09;5026929;28;20059;-87
2021/11/08 09:34:09;;;;;;;43.88;10.45;;;;;;;5.65;97.49;99556.13;5026863;28;20026;-87
2021/11/08 09:36:37;;;;;;;30.05;10.75;;;;;;;5.74;97.97;99561.50;5026820;28;20269;-87
2021/11/08 09:39:20;;;;;;;23.45;9.50;;;;;;;5.96;97.19;99555.75;5027877;28;20025;-87
2021/11/08 09:41:47;;;;;;;30.95;10.75;;;;;;;6.03;97.24;99570.66;5026812;28;20228;-87
2021/11/08 09:44:12;;;;;;;29.48;10.48;;;;;;;6.25;97.32;99578.78;5026686;28;20022;-87
2021/11/08 09:46:38;;;;;;;41.35;10.38;;;;;;;6.02;98.46;99574.13;5026551;28;20022;-87
2021/11/08 09:49:07;;;;;;;28.13;9.40;;;;;;;6.22;98.13;99583.09;5026590;28;20033;-87
2021/11/08 09:51:41;;;;;;;23.40;9.48;;;;;;;6.40;97.41;99583.34;5027723;28;20030;-87
2021/11/08 09:54:10;;;;;;;36.10;10.63;;;;;;;6.33;96.60;99581.50;5027657;28;20080;-87
2021/11/08 09:56:36;;;;;;;41.05;10.73;;;;;;;6.37;96.42;99580.69;5026464;28;20018;-87
2021/11/08 09:59:01;;;;;;;26.50;10.15;;;;;;;6.56;96.55;99590.50;5026413;28;20041;-87
2021/11/08 10:01:28;;;;;;;44.15;10.55;;;;;;;6.54;95.96;99576.50;5026332;28;20379;-87
2021/11/08 10:03:55;;;;;;;35.80;9.52;;;;;;;6.44;96.36;99579.88;5026070;28;20359;-87
2021/11/08 10:06:21;;;;;;;32.88;10.35;;;;;;;6.30;97.26;99582.31;5026187;28;20101;-87
2021/11/08 10:08:48;;;;;;;30.60;10.40;;;;;;;6.31;98.90;99572.75;5026225;28;20340;-87
2021/11/08 10:11:16;;;;;;;48.90;10.75;;;;;;;6.19;98.23;99568.25;5026179;28;20021;-87
2021/11/08 10:13:44;;;;;;;38.33;11.02;;;;;;;6.35;97.61;99579.78;5026091;28;20021;-87
2021/11/08 10:16:25;;;;;;;35.90;11.05;;;;;;;6.44;97.02;99569.44;5026433;28;20368;-87
2021/11/08 10:18:54;;;;;;;30.92;12.93;;;;;;;6.43;97.54;99578.16;5026080;28;20213;-87
2021/11/08 10:21:28;;;;;;;56.47;11.27;;;;;;;6.44;96.86;99574.66;5026332;28;20022;-87
2021/11/08 10:23:56;;;;;;;55.55;12.52;;;;;;;6.37;98.22;99575.44;5025917;28;20040;-87
2021/11/08 10:26:28;;;;;;;34.63;12.82;;;;;;;6.58;98.07;99573.06;5025784;28;20033;-87
2021/11/08 10:29:11;;;;;;;62.75;14.35;;;;;;;6.73;99.28;99586.31;5025459;28;20028;-87
2021/11/08 10:31:49;;;;;;;41.10;13.38;;;;;;;6.64;99.30;99578.38;5026953;28;20093;-87
2021/11/08 10:34:16;;;;;;;54.38;12.25;;;;;;;6.83;99.02;99590.78;5025798;28;20029;-87
2021/11/08 10:36:43;;;;;;;34.67;12.65;;;;;;;6.81;98.72;99595.16;5025677;28;20018;-87
2021/11/08 10:39:10;;;;;;;45.05;13.52;;;;;;;6.55;99.22;99583.50;5025648;28;20029;-87
2021/11/08 10:41:39;;;;;;;30.50;12.20;;;;;;;6.68;99.85;99585.41;5026956;28;20021;-87
2021/11/08 10:44:11;;;;;;;41.00;13.63;;;;;;;6.76;99.84;99585.47;5026963;28;20384;-87
2021/11/08 10:46:41;;;;;;;35.15;13.02;;;;;;;6.76;100.00;99578.50;5026615;28;20087;-87
2021/11/08 10:49:14;;;;;;;48.53;13.10;;;;;;;6.66;99.70;99584.50;5025782;28;20036;-87
2021/11/08 10:51:45;;;;;;;37.03;13.95;;;;;;;6.71;98.51;99600.25;5025499;28;20213;-87
2021/11/08 10:54:35;;;;;;;24.10;11.77;;;;;;;6.71;98.90;99581.94;5025813;28;20331;-87
2021/11/08 10:57:07;;;;;;;30.40;12.32;;;;;;;6.71;97.15;99584.56;5014946;28;20040;-87
2021/11/08 10:59:42;;;;;;;33.92;13.57;;;;;;;6.72;96.62;99588.94;5026482;28;20022;-87
2021/11/08 11:02:13;;;;;;;32.67;12.15;;;;;;;6.55;97.96;99589.59;5025200;28;20097;-87
2021/11/08 11:04:49;;;;;;;28.33;10.93;;;;;;;6.80;97.80;99585.53;5025092;28;20113;-87
2021/11/08 11:07:30;;;;;;;31.25;11.80;;;;;;;6.78;96.96;99587.28;5026253;28;20329;-87
2021/11/08 11:10:00;;;;;;;30.25;11.02;;;;;;;6.86;97.23;99585.59;5025465;28;20029;-87
2021/11/08 11:12:27;;;;;;;26.05;10.75;;;;;;;6.89;96.90;99585.63;5026470;28;20017;-87
2021/11/08 11:15:00;;;;;;;25.02;10.00;;;;;;;6.85;97.31;99570.75;5025244;28;20355;-87
2021/11/08 11:17:31;;;;;;;38.50;10.13;;;;;;;6.74;97.14;99574.13;5024944;28;20026;-87
2021/11/08 11:20:12;;;;;;;40.95;11.15;;;;;;;6.80;97.80;99568.97;5024907;28;20022;-87
2021/11/08 11:22:43;;;;;;;46.83;11.27;;;;;;;6.66;97.97;99566.19;5024850;28;20022;-87
2021/11/08 11:25:11;;;;;;;29.42;11.48;;;;;;;6.97;99.11;99565.66;5026216;28;20208;-87
2021/11/08 11:27:48;;;;;;;35.92;12.00;;;;;;;6.75;98.28;99570.66;5024769;28;20030;-87
2021/11/08 11:30:33;;;;;;;27.25;13.23;;;;;;;6.99;97.67;99560.44;5024784;28;20025;-87
2021/11/08 11:33:05;;;;;;;30.33;12.07;;;;;;;7.01;98.12;99563.94;5024594;28;20022;-87
2021/11/08 11:35:44;;;;;;;;;;;;;;;7.08;97.25;99555.28;5025104;28;20045;-87
2021/11/08 11:38:14;;;;;;;29.75;12.10;;;;;;;6.94;97.75;99547.31;5024624;28;19905;-87
2021/11/08 11:40:51;;;;;;;24.40;11.50;;;;;;;7.09;96.65;99552.66;5024785;28;20057;-87
2021/11/08 11:43:17;;;;;;;50.08;11.23;;;;;;;6.96;96.66;99547.31;5024456;28;20018;-87
2021/11/08 11:45:52;;;;;;;32.72;10.75;;;;;;;7.13;97.18;99559.69;5024348;28;20221;-87
2021/11/08 11:48:22;;;;;;;27.23;10.05;;;;;;;7.29;96.85;99560.69;5024416;28;20324;-87
2021/11/08 11:50:48;;;;;;;28.65;11.27;;;;;;;7.02;95.75;99550.84;5024344;28;20032;-87
2021/11/08 11:53:14;;;;;;;26.48;10.75;;;;;;;7.17;96.29;99553.63;5024588;28;20029;-87
2021/11/08 11:55:41;;;;;;;25.15;10.00;;;;;;;7.36;95.27;99552.91;5024257;28;20041;-87
2021/11/08 11:58:07;;;;;;;25.25;10.20;;;;;;;7.51;95.09;99553.03;5024236;28;20032;-87
2021/11/08 12:00:38;;;;;;;28.70;10.02;;;;;;;7.59;94.70;99561.81;5024438;28;20030;-87
2021/11/08 12:03:04;;;;;;;23.88;10.07;;;;;;;7.62;95.57;99555.69;5025058;28;20088;-87
2021/11/08 12:05:30;;;;;;;21.48;9.38;;;;;;;7.49;94.71;99557.38;5023977;28;20129;-87
2021/11/08 12:07:59;;;;;;;24.75;10.63;;;;;;;7.52;95.79;99560.00;5025167;28;20061;-87
2021/11/08 12:10:25;;;;;;;28.58;11.35;;;;;;;7.35;96.44;99550.28;5024265;28;20101;-87
2021/11/08 12:12:51;;;;;;;27.10;12.02;;;;;;;7.56;95.76;99556.53;5023922;28;20317;-87
2021/11/08 12:15:28;;;;;;;31.40;12.82;;;;;;;7.57;95.10;99552.19;5024179;28;20018;-87
2021/11/08 12:17:55;;;;;;;34.05;13.32;;;;;;;7.42;95.50;99537.25;5023867;28;20029;-87
2021/11/08 12:20:24;;;;;;;33.25;12.90;;;;;;;7.26;96.30;99538.00;5023751;28;20029;-87
2021/11/08 12:22:52;;;;;;;33.25;12.77;;;;;;;7.42;96.21;99542.47;5023757;28;20030;-87
2021/11/08 12:25:21;;;;;;;34.97;13.55;;;;;;;7.36;96.46;99537.19;5023625;28;20026;-87
2021/11/08 12:27:51;;;;;;;32.10;12.10;;;;;;;7.64;96.60;99552.25;5023629;28;20277;-87
2021/11/08 12:30:29;;;;;;;25.50;12.23;;;;;;;7.77;97.22;99554.06;5023916;28;20033;-87
2021/11/08 12:32:59;;;;;;;38.35;12.43;;;;;;;7.84;97.07;99541.88;5023650;28;20021;-87
2021/11/08 12:35:31;;;;;;;33.65;12.90;;;;;;;7.77;95.64;99546.22;5024702;28;20305;-87
2021/11/08 12:37:57;;;;;;;25.65;11.63;;;;;;;7.58;96.11;99548.69;5023523;28;20142;-87
2021/11/08 12:40:30;;;;;;;34.15;12.40;;;;;;;7.83;95.47;99548.00;5023449;28;20030;-87
2021/11/08 12:42:55;;;;;;;30.25;11.57;;;;;;;7.85;95.69;99544.50;5024567;28;20028;-87
2021/11/08 12:45:39;;;;;;;32.85;12.13;;;;;;;7.76;95.65;99535.72;5024778;28;20022;-87
2021/11/08 12:48:13;;;;;;;27.10;11.73;;;;;;;7.79;96.36;99528.72;5023403;28;20096;-87
2021/11/08 12:50:42;;;;;;;33.67;14.43;;;;;;;7.64;95.69;99526.03;5023291;28;20261;-87
2021/11/08 12:53:23;;;;;;;37.08;13.43;;;;;;;7.59;95.05;99529.50;5024383;28;20026;-87
2021/11/08 12:55:49;;;;;;;37.17;14.02;;;;;;;7.77;96.14;99525.25;5024324;28;20030;-87
2021/11/08 12:58:14;;;;;;;32.78;12.57;;;;;;;7.68;96.23;99519.94;5023203;28;20068;-87
2021/11/08 13:00:51;;;;;;;36.33;12.10;;;;;;;7.63;94.90;99523.41;5023216;28;20025;-87
2021/11/08 13:03:30;;;;;;;28.17;12.18;;;;;;;7.78;96.04;99521.75;5022968;28;20018;-87
2021/11/08 13:05:58;;;;;;;32.78;12.57;;;;;;;7.85;95.21;99523.53;5023119;28;20022;-87
2021/11/08 13:08:27;;;;;;;36.35;13.07;;;;;;;8.08;96.23;99526.28;5023068;28;20057;-87
2021/11/08 13:11:11;;;;;;;38.67;12.32;;;;;;;8.22;94.49;99522.00;5023075;28;20064;-87
2021/11/08 13:13:42;;;;;;;33.40;13.38;;;;;;;8.22;94.14;99520.25;5023105;28;20394;-87